Time;durP1;ratioP1;P1;durP2;ratioP2;P2;SDS_P1;SDS_P2;PMS_P1;PMS_P2;Temp;Humidity;BMP_temperature;BMP_pressure;BME280_temperature;BME280_humidity;BME280_pressure;Samples;Min_cycle;Max_cycle;Signal;HPM_P1;HPM_P2
2021/09/02 00:00:48;;;;;;;27.47;20.87;;;14.50;99.90;;;;;;5039860;28;20579;-82
2021/09/02 00:03:14;;;;;;;24.80;18.03;;;14.50;99.90;;;;;;5038719;28;21060;-82
2021/09/02 00:05:40;;;;;;;23.40;18.50;;;14.50;99.90;;;;;;5038828;28;20651;-82
2021/09/02 00:08:06;;;;;;;25.30;18.50;;;14.40;99.90;;;;;;5037810;28;20581;-82
2021/09/02 00:10:33;;;;;;;24.00;18.63;;;14.40;99.90;;;;;;5036515;28;20596;-82
2021/09/02 00:12:59;;;;;;;22.70;17.33;;;14.40;99.90;;;;;;5037327;28;20971;-83
2021/09/02 00:15:24;;;;;;;27.30;18.93;;;14.40;99.90;;;;;;5037268;28;20595;-82
2021/09/02 00:17:50;;;;;;;22.07;17.93;;;14.50;99.90;;;;;;5036297;28;20170;-82
2021/09/02 00:20:16;;;;;;;27.23;19.23;;;14.50;99.90;;;;;;5036531;28;20219;-82
2021/09/02 00:22:43;;;;;;;22.75;18.27;;;14.50;99.90;;;;;;5036292;28;20560;-82
2021/09/02 00:25:09;;;;;;;25.13;20.10;;;14.60;99.90;;;;;;5035812;28;20568;-83
2021/09/02 00:27:35;;;;;;;26.73;19.60;;;14.60;99.90;;;;;;5036463;28;20569;-82
2021/09/02 00:30:01;;;;;;;26.90;19.70;;;14.70;99.90;;;;;;5017552;28;20564;-82
2021/09/02 00:32:27;;;;;;;23.47;18.43;;;14.70;99.90;;;;;;5035620;28;21293;-82
2021/09/02 00:34:53;;;;;;;22.80;18.63;;;14.90;99.90;;;;;;5017525;28;20656;-82
2021/09/02 00:37:18;;;;;;;21.30;17.67;;;14.90;99.90;;;;;;5035011;28;20170;-82
2021/09/02 00:39:44;;;;;;;27.43;18.50;;;15.00;99.90;;;;;;5034743;28;20219;-82
2021/09/02 00:42:10;;;;;;;23.83;18.27;;;15.10;99.90;;;;;;5035742;28;20172;-82
2021/09/02 00:44:35;;;;;;;28.80;18.83;;;15.20;99.90;;;;;;5017161;28;20258;-82
2021/09/02 00:47:11;;;;;;;22.60;17.47;;;15.30;99.90;;;;;;5034906;28;20216;-83
2021/09/02 00:49:40;;;;;;;19.97;16.77;;;15.30;99.90;;;;;;5019045;28;20587;-82
2021/09/02 00:52:14;;;;;;;20.87;16.40;;;15.40;99.90;;;;;;5016383;28;20565;-82
2021/09/02 00:54:45;;;;;;;19.70;16.47;;;15.50;99.90;;;;;;5033882;28;20624;-82
2021/09/02 00:57:12;;;;;;;19.83;15.83;;;15.60;99.90;;;;;;5034050;28;20588;-82
2021/09/02 00:59:39;;;;;;;16.17;14.23;;;15.60;99.90;;;;;;5033939;28;20556;-82
2021/09/02 01:02:06;;;;;;;16.20;13.10;;;15.70;99.90;;;;;;5035128;28;21208;-82
2021/09/02 01:04:32;;;;;;;17.60;15.70;;;15.70;99.90;;;;;;5034557;28;20565;-82
2021/09/02 01:06:58;;;;;;;18.80;15.80;;;15.80;99.90;;;;;;5034989;28;20619;-82
2021/09/02 01:09:26;;;;;;;19.63;16.37;;;15.80;99.90;;;;;;5001120;28;20185;-82
2021/09/02 01:11:53;;;;;;;18.60;15.87;;;15.90;99.90;;;;;;5016883;28;20614;-83
2021/09/02 01:14:19;;;;;;;19.97;16.10;;;15.90;99.90;;;;;;5001030;28;20616;-82
2021/09/02 01:16:47;;;;;;;19.10;14.57;;;16.00;99.90;;;;;;5034459;28;20704;-82
2021/09/02 01:19:14;;;;;;;18.03;15.13;;;16.00;99.90;;;;;;5034773;28;20576;-81
2021/09/02 01:21:40;;;;;;;18.43;16.53;;;16.10;99.90;;;;;;5036267;28;21092;-82
2021/09/02 01:24:06;;;;;;;20.33;15.40;;;16.10;99.90;;;;;;5017431;28;20624;-82
2021/09/02 01:26:31;;;;;;;21.00;14.40;;;16.10;99.90;;;;;;5038726;28;20192;-82
2021/09/02 01:28:57;;;;;;;22.40;16.27;;;16.20;99.90;;;;;;5035894;28;20228;-82
2021/09/02 01:31:23;;;;;;;18.17;14.90;;;16.20;99.90;;;;;;5034635;28;20170;-83
2021/09/02 01:33:49;;;;;;;17.47;15.10;;;16.20;99.90;;;;;;5000326;28;20221;-82
2021/09/02 01:36:15;;;;;;;21.27;15.27;;;16.20;99.90;;;;;;5015996;28;20213;-82
2021/09/02 01:38:41;;;;;;;16.27;14.50;;;16.30;99.90;;;;;;5016769;28;20653;-82
2021/09/02 01:41:07;;;;;;;20.20;16.20;;;16.30;99.90;;;;;;5034136;28;20604;-82
2021/09/02 01:43:33;;;;;;;20.10;14.03;;;16.30;99.90;;;;;;5033974;28;20189;-83
2021/09/02 01:45:58;;;;;;;15.47;12.97;;;16.40;99.90;;;;;;5033417;28;20598;-83
2021/09/02 01:48:24;;;;;;;19.07;14.40;;;16.40;99.90;;;;;;5034370;28;20569;-82
2021/09/02 01:50:50;;;;;;;16.90;13.70;;;16.40;99.90;;;;;;5043892;28;20170;-83
2021/09/02 01:53:18;;;;;;;16.50;14.77;;;16.50;99.90;;;;;;5029730;28;20256;-83
2021/09/02 01:55:46;;;;;;;17.37;15.20;;;16.50;99.90;;;;;;5046778;28;20593;-83
2021/09/02 01:58:13;;;;;;;16.03;14.30;;;16.50;99.90;;;;;;5027385;28;20576;-83
2021/09/02 02:00:39;;;;;;;16.97;14.00;;;16.50;99.90;;;;;;5043327;28;21069;-82
2021/09/02 02:03:06;;;;;;;19.30;14.67;;;16.60;99.90;;;;;;5021131;28;20580;-83
2021/09/02 02:05:32;;;;;;;14.53;13.10;;;16.60;99.90;;;;;;5037575;28;20596;-83
2021/09/02 02:07:58;;;;;;;17.60;14.10;;;16.60;99.90;;;;;;5039304;28;20691;-83
2021/09/02 02:10:28;;;;;;;16.77;14.97;;;16.70;99.90;;;;;;5038588;28;20604;-83
2021/09/02 02:12:55;;;;;;;15.03;13.40;;;16.70;99.90;;;;;;5038139;28;20611;-82
2021/09/02 02:15:22;;;;;;;15.07;11.77;;;16.70;99.90;;;;;;5021011;28;20629;-82
2021/09/02 02:17:48;;;;;;;16.10;12.67;;;16.70;99.90;;;;;;5021272;28;20996;-82
2021/09/02 02:20:13;;;;;;;15.33;12.40;;;16.70;99.90;;;;;;5023691;28;20569;-83
2021/09/02 02:22:40;;;;;;;15.20;12.00;;;16.70;99.90;;;;;;5023115;28;20166;-83
2021/09/02 02:25:08;;;;;;;16.80;13.37;;;16.70;99.90;;;;;;5041416;28;20166;-83
2021/09/02 02:27:34;;;;;;;15.53;12.60;;;16.70;99.90;;;;;;5023872;28;20569;-83
2021/09/02 02:29:59;;;;;;;15.63;12.77;;;16.70;99.90;;;;;;5041557;28;20580;-83
2021/09/02 02:32:25;;;;;;;15.20;13.40;;;16.70;99.90;;;;;;5022689;28;20568;-83
2021/09/02 02:34:51;;;;;;;15.33;12.90;;;16.70;99.90;;;;;;5004519;28;20200;-82
2021/09/02 02:37:17;;;;;;;15.60;12.10;;;16.70;99.90;;;;;;5037187;28;20571;-83
2021/09/02 02:39:43;;;;;;;18.77;13.03;;;16.70;99.90;;;;;;5004387;28;20229;-82
2021/09/02 02:42:10;;;;;;;14.37;11.80;;;16.70;99.90;;;;;;5037882;28;20565;-82
2021/09/02 02:44:37;;;;;;;14.67;12.37;;;16.70;99.90;;;;;;5034458;28;20605;-82
2021/09/02 02:47:04;;;;;;;16.33;12.10;;;16.70;99.90;;;;;;5015690;28;20611;-82
2021/09/02 02:49:30;;;;;;;16.73;12.67;;;16.70;99.90;;;;;;5032951;28;20568;-82
2021/09/02 02:51:56;;;;;;;16.00;11.60;;;16.70;99.90;;;;;;5014460;28;21140;-82
2021/09/02 02:54:22;;;;;;;14.70;11.63;;;16.70;99.90;;;;;;5014491;28;20722;-83
2021/09/02 02:56:48;;;;;;;13.90;12.50;;;16.60;99.90;;;;;;5015122;28;20578;-82
2021/09/02 02:59:14;;;;;;;16.53;12.80;;;16.70;99.90;;;;;;5016169;28;20561;-82
2021/09/02 03:01:40;;;;;;;16.60;13.00;;;16.70;99.90;;;;;;5032763;28;20577;-82
2021/09/02 03:04:06;;;;;;;13.17;11.77;;;16.60;99.90;;;;;;5034125;28;20572;-82
2021/09/02 03:06:31;;;;;;;12.30;10.27;;;16.70;99.90;;;;;;5015132;28;20197;-82
2021/09/02 03:08:58;;;;;;;13.90;11.60;;;16.60;99.90;;;;;;5032139;28;20573;-82
2021/09/02 03:11:24;;;;;;;13.13;11.53;;;16.60;99.90;;;;;;5032208;28;20629;-82
2021/09/02 03:13:50;;;;;;;12.00;10.80;;;16.60;99.90;;;;;;5032088;28;20710;-82
2021/09/02 03:16:16;;;;;;;12.10;10.57;;;16.60;99.90;;;;;;5021556;28;20194;-82
2021/09/02 03:18:41;;;;;;;13.03;11.50;;;16.60;99.90;;;;;;5041189;28;20528;-82
2021/09/02 03:21:07;;;;;;;12.33;9.97;;;16.60;99.90;;;;;;5039254;28;20170;-82
2021/09/02 03:23:33;;;;;;;13.90;11.63;;;16.60;99.90;;;;;;5021046;28;20178;-83
2021/09/02 03:26:02;;;;;;;11.17;10.00;;;16.60;99.90;;;;;;5022490;28;20193;-83
2021/09/02 03:28:27;;;;;;;13.63;11.50;;;16.60;99.90;;;;;;5021825;28;20637;-83
2021/09/02 03:30:53;;;;;;;12.53;10.77;;;16.60;99.90;;;;;;5037155;28;20592;-83
2021/09/02 03:33:19;;;;;;;13.67;10.50;;;16.60;99.90;;;;;;5036910;28;20275;-83
2021/09/02 03:35:44;;;;;;;14.73;11.83;;;16.60;99.90;;;;;;5058028;23;20308;-79
2021/09/02 03:38:10;;;;;;;14.97;10.27;;;16.60;99.90;;;;;;5026678;28;20205;-78
2021/09/02 03:40:36;;;;;;;12.20;9.90;;;16.60;99.90;;;;;;5015870;28;20538;-79
2021/09/02 03:43:02;;;;;;;12.57;10.63;;;16.60;99.90;;;;;;5023173;28;20265;-78
2021/09/02 03:45:28;;;;;;;12.33;10.27;;;16.60;99.90;;;;;;5010922;28;20699;-78
2021/09/02 03:47:54;;;;;;;13.03;10.67;;;16.60;99.90;;;;;;5023100;28;20580;-78
2021/09/02 03:50:20;;;;;;;13.70;10.83;;;16.60;99.90;;;;;;5006673;28;20185;-78
2021/09/02 03:52:46;;;;;;;11.60;10.40;;;16.60;99.90;;;;;;5009937;28;20328;-78
2021/09/02 03:55:12;;;;;;;12.80;10.83;;;16.50;99.90;;;;;;5027657;28;20576;-78
2021/09/02 03:57:39;;;;;;;15.50;11.17;;;16.50;99.90;;;;;;5004894;28;21046;-78
2021/09/02 04:00:07;;;;;;;14.80;10.13;;;16.50;99.90;;;;;;5026170;28;20680;-78
2021/09/02 04:02:33;;;;;;;11.80;10.57;;;16.50;99.90;;;;;;5020508;28;20616;-78
2021/09/02 04:05:00;;;;;;;14.33;11.43;;;16.40;99.90;;;;;;5025209;28;20618;-78
2021/09/02 04:07:26;;;;;;;13.80;11.50;;;16.40;99.90;;;;;;5020483;28;20600;-78
2021/09/02 04:09:52;;;;;;;18.07;12.03;;;16.40;99.90;;;;;;4994745;28;20602;-78
2021/09/02 04:12:19;;;;;;;12.90;11.37;;;16.30;99.90;;;;;;5025074;28;20219;-78
2021/09/02 04:14:44;;;;;;;13.93;10.60;;;16.30;99.90;;;;;;5024559;28;20201;-78
2021/09/02 04:17:10;;;;;;;13.73;10.93;;;16.30;99.90;;;;;;5031936;28;20642;-78
2021/09/02 04:19:36;;;;;;;14.63;10.90;;;16.20;99.90;;;;;;5018024;28;20538;-78
2021/09/02 04:22:01;;;;;;;13.57;10.37;;;16.20;99.90;;;;;;5013844;28;20197;-78
2021/09/02 04:24:27;;;;;;;12.90;10.60;;;16.20;99.90;;;;;;5021958;28;20247;-78
2021/09/02 04:26:54;;;;;;;11.93;9.93;;;16.10;99.90;;;;;;5025154;28;20208;-78
2021/09/02 04:29:19;;;;;;;18.30;12.00;;;16.10;99.90;;;;;;4999241;28;20193;-78
2021/09/02 04:31:45;;;;;;;14.57;10.80;;;16.00;99.90;;;;;;5017781;28;20640;-78
2021/09/02 04:34:11;;;;;;;14.60;11.27;;;16.00;99.90;;;;;;5007222;28;20189;-78
2021/09/02 04:36:36;;;;;;;13.97;10.20;;;15.90;99.90;;;;;;5022827;28;20202;-78
2021/09/02 04:39:03;;;;;;;13.47;10.33;;;15.90;99.90;;;;;;5025720;28;20202;-78
2021/09/02 04:41:29;;;;;;;14.60;10.97;;;15.80;99.90;;;;;;5026786;28;20178;-79
2021/09/02 04:43:55;;;;;;;13.23;10.90;;;15.70;99.90;;;;;;5007231;28;20677;-79
2021/09/02 04:46:20;;;;;;;14.80;10.90;;;15.70;99.90;;;;;;5024878;28;20544;-80
2021/09/02 04:48:46;;;;;;;14.97;10.20;;;15.60;99.90;;;;;;5028145;28;20195;-78
2021/09/02 04:51:12;;;;;;;12.77;11.20;;;15.50;99.90;;;;;;5025237;28;20165;-79
2021/09/02 04:53:38;;;;;;;12.67;10.80;;;15.50;99.90;;;;;;5015796;28;20226;-79
2021/09/02 04:56:03;;;;;;;11.77;9.97;;;15.40;99.90;;;;;;5015381;28;20221;-78
2021/09/02 04:58:29;;;;;;;14.17;10.60;;;15.40;99.90;;;;;;5033444;28;20196;-79
2021/09/02 05:00:55;;;;;;;15.07;12.00;;;15.30;99.90;;;;;;5015785;28;20564;-79
2021/09/02 05:03:21;;;;;;;16.83;11.23;;;15.30;99.90;;;;;;5033303;28;20651;-78
2021/09/02 05:05:46;;;;;;;14.70;11.60;;;15.20;99.90;;;;;;5015304;28;20208;-78
2021/09/02 05:08:12;;;;;;;12.47;10.77;;;15.20;99.90;;;;;;5015475;28;20169;-79
2021/09/02 05:10:38;;;;;;;13.27;10.47;;;15.20;99.90;;;;;;5033495;28;20177;-78
2021/09/02 05:13:03;;;;;;;15.10;10.00;;;15.20;99.90;;;;;;5015310;28;20609;-78
2021/09/02 05:15:29;;;;;;;15.03;12.00;;;15.10;99.90;;;;;;5015774;28;20170;-78
2021/09/02 05:17:55;;;;;;;14.60;11.87;;;15.10;99.90;;;;;;5033748;28;20290;-78
2021/09/02 05:20:21;;;;;;;12.80;10.90;;;15.10;99.90;;;;;;4999042;28;20185;-79
2021/09/02 05:22:48;;;;;;;12.80;10.53;;;15.10;99.90;;;;;;5032757;28;20565;-79
2021/09/02 05:25:13;;;;;;;12.80;10.60;;;15.10;99.90;;;;;;5033810;28;20572;-78
2021/09/02 05:27:40;;;;;;;14.87;10.47;;;15.10;99.90;;;;;;5014667;28;20224;-78
2021/09/02 05:30:09;;;;;;;18.50;11.10;;;15.10;99.90;;;;;;4998809;28;20579;-78
2021/09/02 05:32:35;;;;;;;11.70;9.77;;;15.10;99.90;;;;;;5032359;28;20693;-79
2021/09/02 05:35:00;;;;;;;13.63;10.93;;;15.20;99.90;;;;;;5015125;28;20568;-79
2021/09/02 05:37:26;;;;;;;13.00;11.10;;;15.30;99.90;;;;;;5032172;28;20616;-79
2021/09/02 05:39:52;;;;;;;13.80;9.63;;;15.40;99.90;;;;;;5031533;28;20946;-79
2021/09/02 05:42:18;;;;;;;14.40;11.60;;;15.40;99.90;;;;;;5032533;28;20174;-79
2021/09/02 05:44:44;;;;;;;16.60;10.13;;;15.50;99.90;;;;;;5032300;28;20564;-79
2021/09/02 05:47:09;;;;;;;14.83;11.93;;;15.70;99.90;;;;;;5032212;28;20566;-78
2021/09/02 05:49:35;;;;;;;15.20;12.73;;;15.70;99.90;;;;;;5014428;28;20518;-77
2021/09/02 05:52:01;;;;;;;16.27;11.47;;;15.80;99.90;;;;;;5032309;28;20260;-78
2021/09/02 05:54:27;;;;;;;13.43;11.50;;;15.90;99.90;;;;;;5032020;28;20251;-78
2021/09/02 05:56:53;;;;;;;13.37;10.93;;;16.00;99.90;;;;;;4997779;28;20535;-78
2021/09/02 05:59:19;;;;;;;13.17;11.87;;;16.10;99.90;;;;;;5014365;28;20613;-78
2021/09/02 06:01:44;;;;;;;15.90;10.70;;;16.20;99.90;;;;;;5014718;28;20252;-78
2021/09/02 06:04:10;;;;;;;16.03;12.10;;;16.30;99.90;;;;;;5032271;28;20565;-78
2021/09/02 06:06:36;;;;;;;12.27;10.40;;;16.40;99.90;;;;;;5014686;28;20185;-80
2021/09/02 06:09:02;;;;;;;12.43;11.17;;;16.50;99.90;;;;;;5015424;28;20166;-78
2021/09/02 06:11:28;;;;;;;13.47;10.50;;;16.70;99.90;;;;;;5014493;28;20626;-79
2021/09/02 06:13:54;;;;;;;13.23;11.07;;;16.80;99.90;;;;;;5031952;28;20627;-78
2021/09/02 06:16:20;;;;;;;16.27;10.63;;;16.90;99.90;;;;;;5031701;28;20659;-80
2021/09/02 06:18:48;;;;;;;12.03;10.40;;;16.90;99.90;;;;;;5014105;28;20645;-78
2021/09/02 06:21:14;;;;;;;12.13;10.20;;;17.10;99.90;;;;;;5032006;28;20575;-79
2021/09/02 06:23:39;;;;;;;11.50;10.23;;;17.20;99.90;;;;;;5031767;28;20667;-78
2021/09/02 06:26:05;;;;;;;11.10;9.33;;;17.20;99.90;;;;;;5031386;28;20963;-78
2021/09/02 06:28:31;;;;;;;12.97;9.87;;;17.30;99.90;;;;;;5031864;28;20224;-78
2021/09/02 06:30:56;;;;;;;11.33;10.13;;;17.40;99.90;;;;;;5013882;28;20204;-79
2021/09/02 06:33:22;;;;;;;11.63;9.83;;;17.50;99.90;;;;;;5032085;28;20236;-77
2021/09/02 06:35:48;;;;;;;13.03;10.03;;;17.60;99.90;;;;;;5031001;28;20205;-78
2021/09/02 06:38:14;;;;;;;13.87;11.27;;;17.70;99.90;;;;;;4997840;28;20531;-78
2021/09/02 06:40:39;;;;;;;14.77;9.60;;;18.00;99.90;;;;;;5031531;28;20177;-78
2021/09/02 06:43:05;;;;;;;13.00;10.70;;;18.50;99.90;;;;;;5031787;28;20529;-78
2021/09/02 06:45:31;;;;;;;10.73;9.50;;;19.10;99.90;;;;;;5031287;28;20226;-77
2021/09/02 06:47:57;;;;;;;10.17;9.17;;;19.70;99.90;;;;;;5013709;28;21134;-78
2021/09/02 06:50:23;;;;;;;11.80;9.93;;;20.40;99.90;;;;;;5031159;28;20544;-78
2021/09/02 06:52:48;;;;;;;9.87;8.87;;;21.20;99.90;;;;;;5031596;28;20161;-78
2021/09/02 06:55:14;;;;;;;10.10;9.10;;;22.10;99.90;;;;;;5031208;28;20660;-78
2021/09/02 06:57:40;;;;;;;8.90;7.73;;;23.00;99.90;;;;;;5013294;28;20189;-78
2021/09/02 07:00:08;;;;;;;10.80;9.70;;;23.90;99.90;;;;;;5031496;28;20172;-78
2021/09/02 07:02:34;;;;;;;9.60;8.60;;;24.70;99.90;;;;;;5031500;28;20626;-78
2021/09/02 07:05:04;;;;;;;9.50;8.53;;;25.30;99.90;;;;;;5031625;28;20576;-77
2021/09/02 07:07:30;;;;;;;11.27;7.93;;;26.00;99.90;;;;;;4987208;28;20629;-78
2021/09/02 07:09:55;;;;;;;9.27;8.30;;;26.40;99.90;;;;;;5019858;28;20621;-78
2021/09/02 07:12:21;;;;;;;8.20;7.40;;;26.70;99.90;;;;;;5014998;28;20616;-77
2021/09/02 07:14:47;;;;;;;12.97;9.97;;;27.20;99.90;;;;;;5010302;28;20201;-77
2021/09/02 07:17:12;;;;;;;9.07;8.17;;;27.50;99.90;;;;;;4996003;28;20688;-78
2021/09/02 07:19:38;;;;;;;9.53;8.53;;;27.90;99.90;;;;;;5010271;28;20170;-78
2021/09/02 07:22:04;;;;;;;8.40;7.60;;;28.20;99.90;;;;;;4995832;28;20174;-78
2021/09/02 07:24:29;;;;;;;9.50;8.60;;;28.50;99.90;;;;;;5027013;28;20676;-78
2021/09/02 07:26:55;;;;;;;9.20;7.60;;;28.90;99.90;;;;;;5005980;28;20212;-78
2021/09/02 07:29:21;;;;;;;8.97;8.10;;;29.20;99.90;;;;;;5004188;28;20225;-79
2021/09/02 07:31:47;;;;;;;8.40;7.60;;;29.60;99.90;;;;;;5001955;28;20187;-79
2021/09/02 07:34:13;;;;;;;10.23;9.13;;;30.10;99.90;;;;;;5020653;28;20199;-79
2021/09/02 07:36:38;;;;;;;8.57;7.77;;;30.30;99.90;;;;;;5027458;28;20583;-78
2021/09/02 07:39:05;;;;;;;8.00;7.30;;;30.50;99.90;;;;;;5005964;28;20662;-78
2021/09/02 07:41:31;;;;;;;9.60;7.87;;;31.00;99.90;;;;;;5007039;28;20168;-78
2021/09/02 07:43:57;;;;;;;10.07;9.07;;;31.50;99.90;;;;;;4986999;28;20597;-79
2021/09/02 07:46:23;;;;;;;10.87;9.77;;;31.90;99.90;;;;;;5017933;28;20617;-78
2021/09/02 07:48:48;;;;;;;12.70;11.50;;;32.20;99.90;;;;;;5016957;28;20184;-78
2021/09/02 07:51:15;;;;;;;11.77;10.67;;;32.60;99.90;;;;;;5016015;28;20176;-79
2021/09/02 07:53:41;;;;;;;12.80;11.00;;;33.00;99.90;;;;;;5008001;28;20210;-78
2021/09/02 07:56:07;;;;;;;14.57;13.17;;;33.40;99.90;;;;;;5011255;28;21249;-78
2021/09/02 07:58:33;;;;;;;13.00;11.73;;;33.40;98.70;;;;;;5021984;28;20794;-78
2021/09/02 08:00:59;;;;;;;14.30;12.97;;;33.30;97.30;;;;;;4983112;28;20643;-79
2021/09/02 08:03:24;;;;;;;13.50;12.20;;;33.00;95.10;;;;;;5022724;28;20593;-78
2021/09/02 08:05:50;;;;;;;14.67;13.23;;;32.80;95.00;;;;;;5029217;28;20681;-78
2021/09/02 08:08:16;;;;;;;16.80;14.30;;;32.80;94.70;;;;;;5014059;28;20205;-78
2021/09/02 08:10:43;;;;;;;17.53;15.83;;;33.00;94.20;;;;;;5008223;28;20526;-78
2021/09/02 08:13:10;;;;;;;17.40;15.77;;;33.00;92.70;;;;;;5016842;28;20741;-78
2021/09/02 08:15:36;;;;;;;16.73;14.77;;;33.00;92.70;;;;;;5012869;28;20641;-78
2021/09/02 08:18:03;;;;;;;20.07;14.87;;;33.20;92.60;;;;;;5004369;28;20661;-78
2021/09/02 08:20:29;;;;;;;17.43;15.77;;;33.40;92.60;;;;;;4982393;28;20598;-79
2021/09/02 08:22:56;;;;;;;16.37;14.77;;;33.70;92.00;;;;;;4995398;28;21168;-78
2021/09/02 08:25:22;;;;;;;17.00;15.30;;;33.90;91.20;;;;;;4977805;28;20570;-78
2021/09/02 08:27:49;;;;;;;14.87;13.23;;;33.90;89.70;;;;;;4979275;28;20609;-77
2021/09/02 08:30:17;;;;;;;14.23;12.83;;;34.10;89.40;;;;;;4947600;28;21149;-77
2021/09/02 08:32:47;;;;;;;13.93;12.63;;;34.40;88.80;;;;;;4978191;28;21000;-78
2021/09/02 08:35:20;;;;;;;15.10;13.40;;;34.40;85.70;;;;;;4996541;28;20577;-78
2021/09/02 08:37:47;;;;;;;16.27;14.77;;;34.50;83.80;;;;;;4976966;28;20570;-79
2021/09/02 08:40:16;;;;;;;15.90;14.33;;;34.80;84.20;;;;;;4979717;28;20621;-79
2021/09/02 08:42:44;;;;;;;14.17;12.00;;;35.00;82.70;;;;;;4995536;28;20566;-79
2021/09/02 08:45:09;;;;;;;11.50;10.33;;;35.30;82.20;;;;;;4995024;28;20972;-78
2021/09/02 08:47:37;;;;;;;11.77;10.60;;;35.60;81.60;;;;;;4976907;28;20597;-79
2021/09/02 08:50:04;;;;;;;11.07;10.00;;;36.10;80.60;;;;;;4994459;28;20725;-79
2021/09/02 08:52:30;;;;;;;9.93;8.93;;;36.30;79.10;;;;;;4977314;28;20620;-77
2021/09/02 08:54:57;;;;;;;10.73;9.73;;;36.60;76.70;;;;;;4961106;28;21028;-77
2021/09/02 08:57:23;;;;;;;11.93;10.40;;;36.70;74.70;;;;;;4994347;28;20202;-77
2021/09/02 08:59:48;;;;;;;10.30;9.27;;;36.80;73.40;;;;;;4976820;28;20621;-79
2021/09/02 09:02:25;;;;;;;7.40;6.70;;;37.00;72.90;;;;;;4976959;28;21189;-78
2021/09/02 09:05:08;;;;;;;7.97;7.17;;;37.30;71.20;;;;;;4994623;28;20302;-77
2021/09/02 09:07:39;;;;;;;7.73;7.03;;;37.40;68.70;;;;;;4994885;28;21016;-77
2021/09/02 09:10:14;;;;;;;6.37;5.40;;;37.20;64.60;;;;;;4985596;28;20994;-78
2021/09/02 09:12:50;;;;;;;6.33;5.30;;;37.20;62.20;;;;;;5023522;28;20587;-77
2021/09/02 09:15:24;;;;;;;6.40;5.53;;;37.20;63.80;;;;;;5001393;28;20603;-78
2021/09/02 09:17:53;;;;;;;6.03;5.47;;;37.30;63.70;;;;;;5023091;28;20577;-77
2021/09/02 09:20:21;;;;;;;7.60;6.87;;;37.40;63.30;;;;;;5023688;28;20581;-78
2021/09/02 09:22:54;;;;;;;7.70;6.37;;;37.60;62.00;;;;;;5030914;28;20572;-77
2021/09/02 09:25:19;;;;;;;8.53;6.07;;;37.40;60.50;;;;;;5033053;28;20623;-77
2021/09/02 09:27:55;;;;;;;7.83;7.03;;;37.40;61.00;;;;;;5015617;28;20569;-78
2021/09/02 09:30:22;;;;;;;5.53;4.97;;;37.50;60.30;;;;;;5015357;28;20161;-77
2021/09/02 09:32:52;;;;;;;6.87;6.27;;;37.80;60.10;;;;;;5032986;28;20577;-77
2021/09/02 09:35:33;;;;;;;7.73;7.07;;;37.90;59.00;;;;;;5015158;28;20568;-77
2021/09/02 09:38:09;;;;;;;6.40;5.73;;;37.70;55.40;;;;;;5023358;23;20681;-80
2021/09/02 09:40:37;;;;;;;7.50;6.90;;;37.50;57.50;;;;;;5008482;28;21182;-80
2021/09/02 09:43:13;;;;;;;7.00;6.30;;;37.30;56.50;;;;;;5005059;28;20581;-80
2021/09/02 09:45:52;;;;;;;7.47;6.77;;;37.10;56.20;;;;;;4988032;28;20586;-80
2021/09/02 09:48:27;;;;;;;7.43;6.80;;;36.70;55.00;;;;;;4975717;28;20624;-80
2021/09/02 09:51:13;;;;;;;7.70;6.70;;;36.50;55.80;;;;;;4959361;28;20759;-80
2021/09/02 09:53:40;;;;;;;9.00;7.20;;;36.30;56.20;;;;;;4988884;28;20630;-80
2021/09/02 09:56:06;;;;;;;7.23;6.50;;;36.40;56.20;;;;;;4984172;28;20615;-80
2021/09/02 09:58:32;;;;;;;6.60;6.00;;;36.40;55.80;;;;;;4988554;28;20669;-80
2021/09/02 10:01:03;;;;;;;7.77;6.27;;;36.60;56.30;;;;;;4984292;28;21001;-80
2021/09/02 10:03:31;;;;;;;7.20;6.50;;;36.80;56.00;;;;;;4975309;28;20633;-80
2021/09/02 10:06:05;;;;;;;6.43;5.87;;;36.90;55.20;;;;;;4973919;28;20625;-80
2021/09/02 10:08:33;;;;;;;8.80;6.53;;;37.20;55.50;;;;;;4985296;28;21192;-80
2021/09/02 10:11:01;;;;;;;6.70;5.77;;;37.10;53.50;;;;;;4991601;28;20594;-80
2021/09/02 10:13:28;;;;;;;5.80;5.30;;;37.00;54.60;;;;;;4974739;28;21249;-80
2021/09/02 10:15:54;;;;;;;5.73;5.33;;;37.20;55.30;;;;;;4983841;28;20641;-80
2021/09/02 10:18:20;;;;;;;5.67;5.17;;;37.50;55.20;;;;;;4992590;28;20752;-80
2021/09/02 10:20:46;;;;;;;6.23;5.10;;;37.70;54.90;;;;;;4992655;28;21048;-80
2021/09/02 10:23:14;;;;;;;6.20;5.60;;;37.90;54.30;;;;;;4992340;28;20167;-80
2021/09/02 10:25:40;;;;;;;6.40;5.80;;;38.10;54.30;;;;;;4992906;28;20566;-80
2021/09/02 10:28:09;;;;;;;6.67;6.03;;;38.30;53.70;;;;;;4992325;28;20618;-80
2021/09/02 10:30:43;;;;;;;6.50;5.90;;;38.30;52.60;;;;;;4975398;28;21105;-80
2021/09/02 10:33:42;;;;;;;5.80;4.40;;;38.30;51.40;;;;;;4974657;28;21187;-80
2021/09/02 10:36:11;;;;;;;5.50;5.00;;;38.10;53.10;;;;;;4988885;28;20668;-81
2021/09/02 10:38:37;;;;;;;6.23;5.60;;;38.00;52.30;;;;;;4958838;28;21164;-79
2021/09/02 10:41:02;;;;;;;6.23;5.63;;;37.80;52.20;;;;;;4974821;28;20590;-80
2021/09/02 10:43:50;;;;;;;5.50;4.67;;;37.50;51.20;;;;;;4992238;28;20183;-80
2021/09/02 10:46:38;;;;;;;6.63;4.43;;;37.10;51.20;;;;;;4991897;28;20269;-80
2021/09/02 10:49:21;;;;;;;5.43;4.97;;;36.80;51.50;;;;;;4992184;28;20570;-80
2021/09/02 10:51:52;;;;;;;6.47;5.80;;;36.60;51.10;;;;;;4992107;28;20633;-80
2021/09/02 10:54:23;;;;;;;5.27;4.50;;;36.40;50.00;;;;;;4975006;28;20732;-80
2021/09/02 10:56:57;;;;;;;4.80;4.37;;;36.10;50.70;;;;;;4991806;28;20590;-80
2021/09/02 10:59:39;;;;;;;5.53;5.00;;;35.90;51.20;;;;;;4974572;28;20630;-80
2021/09/02 11:02:10;;;;;;;4.67;3.67;;;35.80;51.10;;;;;;4980300;28;20574;-79
2021/09/02 11:04:37;;;;;;;4.23;3.83;;;35.50;50.60;;;;;;4992096;28;20926;-79
2021/09/02 11:07:03;;;;;;;4.63;3.93;;;35.40;51.30;;;;;;4991618;28;21039;-80
2021/09/02 11:09:35;;;;;;;5.07;4.60;;;35.40;52.00;;;;;;4991861;28;21113;-79
2021/09/02 11:12:02;;;;;;;4.80;4.30;;;35.40;52.10;;;;;;4975016;28;20570;-79
2021/09/02 11:14:28;;;;;;;5.73;4.43;;;35.50;52.20;;;;;;4991534;28;21021;-79
2021/09/02 11:16:54;;;;;;;3.53;3.20;;;35.50;51.90;;;;;;4974277;28;20659;-80
2021/09/02 11:19:33;;;;;;;3.40;3.10;;;35.40;51.10;;;;;;4974506;28;20175;-79
2021/09/02 11:22:10;;;;;;;3.97;3.67;;;35.20;50.90;;;;;;4992056;28;20569;-81
2021/09/02 11:24:41;;;;;;;4.67;3.60;;;34.90;50.40;;;;;;4974260;28;21172;-81
2021/09/02 11:27:07;;;;;;;5.50;4.03;;;34.90;51.10;;;;;;4974168;28;21164;-81
2021/09/02 11:29:33;;;;;;;4.60;4.20;;;34.90;51.30;;;;;;4974339;28;20565;-80
2021/09/02 11:32:08;;;;;;;4.70;4.30;;;34.80;51.90;;;;;;4991929;28;20986;-80
2021/09/02 11:34:34;;;;;;;4.60;3.70;;;34.80;51.80;;;;;;4991541;28;20225;-80
2021/09/02 11:37:00;;;;;;;4.83;3.50;;;34.80;51.70;;;;;;4991194;28;20664;-80
2021/09/02 11:39:35;;;;;;;5.23;3.40;;;34.70;51.90;;;;;;4995556;28;20567;-80
2021/09/02 11:42:04;;;;;;;4.27;3.57;;;34.70;51.70;;;;;;4977982;28;20580;-80
2021/09/02 11:44:32;;;;;;;4.90;4.33;;;34.70;51.80;;;;;;4995478;28;20590;-80
2021/09/02 11:46:59;;;;;;;3.70;3.17;;;34.50;51.20;;;;;;4977725;28;20613;-80
2021/09/02 11:49:25;;;;;;;4.07;3.40;;;34.30;51.70;;;;;;4995348;28;21105;-80
2021/09/02 11:51:56;;;;;;;4.27;3.87;;;34.10;52.10;;;;;;4995406;28;21187;-80
2021/09/02 11:54:22;;;;;;;5.43;3.57;;;34.00;51.80;;;;;;4995147;28;21006;-80
2021/09/02 11:56:49;;;;;;;4.93;3.30;;;34.00;52.50;;;;;;4995033;28;21146;-80
2021/09/02 11:59:15;;;;;;;3.07;2.87;;;34.00;52.50;;;;;;4977724;28;20574;-80
2021/09/02 12:01:45;;;;;;;2.77;2.57;;;33.70;51.40;;;;;;4995247;28;20572;-80
2021/09/02 12:04:21;;;;;;;6.73;2.60;;;33.30;51.40;;;;;;4995167;28;20196;-80
2021/09/02 12:06:50;;;;;;;4.17;2.60;;;33.10;52.70;;;;;;4977138;28;21188;-80
2021/09/02 12:09:21;;;;;;;3.77;3.30;;;33.10;52.80;;;;;;4977597;28;20716;-80
2021/09/02 12:11:50;;;;;;;4.23;3.07;;;32.90;52.10;;;;;;4995090;28;20581;-80
2021/09/02 12:14:27;;;;;;;3.47;2.70;;;32.70;52.90;;;;;;4994873;28;20660;-79
2021/09/02 12:17:04;;;;;;;3.30;3.00;;;32.60;52.80;;;;;;4994577;28;21160;-79
2021/09/02 12:19:49;;;;;;;3.60;3.30;;;32.60;52.90;;;;;;4994935;28;20608;-79
2021/09/02 12:22:14;;;;;;;3.30;2.50;;;32.60;52.40;;;;;;4994985;28;20576;-78
2021/09/02 12:24:40;;;;;;;3.30;3.00;;;32.40;52.90;;;;;;4977408;28;20588;-79
2021/09/02 12:27:06;;;;;;;4.00;2.73;;;32.40;52.60;;;;;;4994219;28;20229;-78
2021/09/02 12:29:48;;;;;;;3.60;2.40;;;32.20;53.00;;;;;;4994864;28;20176;-79
2021/09/02 12:32:19;;;;;;;3.30;3.00;;;32.20;52.90;;;;;;4994584;28;20599;-79
2021/09/02 12:34:45;;;;;;;3.63;3.33;;;32.20;53.20;;;;;;4994576;28;20623;-79